Flight Track Log - Related Links

Times and Time Zones

All times are in EDT time to prevent confusion due to time zone crossing. See the UAL5847 flight status page for this flight to view local times or setup timezone preferences in your user account.

Time Position Orientation Groundspeed Altitude Reporting Facility
EDT Latitude Longitude Course Direction KTS MPH feet Rate Location/Type
Fri 10:15:38 AM 41.9333 -87.9167 114° Southeast 150 173 3,300  Level Chicago TRACON
Fri 10:16:50 AM 41.9000 -87.8167 114° Southeast 273 314 5,000 810 Climbing Chicago TRACON
Fri 10:17:44 AM 41.9167 -87.7333 75° East 280 322 5,000 100 Level Chicago TRACON
Fri 10:18:50 AM 41.9500 -87.6333 66° East 280 322 5,200 1,286 Climbing Chicago TRACON
Fri 10:19:50 AM 42.0000 -87.5667 45° Northeast 281 323 7,700 2,350 Climbing Chicago TRACON
Fri 10:20:50 AM 42.0667 -87.5000 37° Northeast 290 334 9,900 2,126 Climbing Chicago TRACON
Fri 10:21:57 AM 42.1372 -87.4189 40° Northeast 298 343 12,200 1,953 Climbing Chicago Center
Fri 10:22:59 AM 42.1872 -87.3242 55° Northeast 325 374 14,100 1,548 Climbing Chicago Center
Fri 10:24:01 AM 42.2281 -87.2114 64° Northeast 333 383 15,400 1,113 Climbing Chicago Center
Fri 10:25:03 AM 42.2700 -87.0883 65° Northeast 356 410 16,400 1,016 Climbing Chicago Center
Fri 10:26:05 AM 42.2831 -86.9442 83° East 390 449 17,500 968 Climbing Chicago Center
Fri 10:27:07 AM 42.2900 -86.7667 87° East 396 456 18,400 968 Climbing Chicago Center
Fri 10:28:09 AM 42.2967 -86.6317 86° East 401 461 19,500 1,113 Climbing Chicago Center
Fri 10:29:11 AM 42.3036 -86.4542 87° East 412 474 20,700 1,065 Climbing Chicago Center
Fri 10:31:15 AM 42.3147 -86.1364 87° East 430 495 22,800 968 Climbing Chicago Center
Fri 10:32:17 AM 42.3136 -85.9736 90° East 436 502 23,700 919 Climbing Chicago Center
Fri 10:33:19 AM 42.3117 -85.8067 91° East 445 512 24,700 1,065 Climbing Chicago Center
Fri 10:34:21 AM 42.3092 -85.6050 91° East 450 518 25,900 1,065 Climbing Chicago Center
Fri 10:35:23 AM 42.3064 -85.4333 91° East 456 525 26,900 938 Climbing Chicago Center
Fri 10:35:57 AM 42.3072 -85.3483 89° East 448 516 27,400 957 Climbing Cleveland Center
Fri 10:36:57 AM 42.3058 -85.1769 91° East 443 510 28,400 1,000 Climbing Cleveland Center
Fri 10:37:57 AM 42.3022 -85.0056 92° East 454 522 29,400 1,000 Climbing Cleveland Center
Fri 10:38:57 AM 42.2961 -84.8308 93° East 459 528 30,400 900 Climbing Cleveland Center
Fri 10:39:57 AM 42.2917 -84.6706 92° East 460 529 31,200 1,000 Climbing Cleveland Center
Fri 10:40:57 AM 42.2858 -84.4792 92° East 465 535 32,400 1,100 Climbing Cleveland Center
Fri 10:41:57 AM 42.3064 -84.3008 81° East 465 535 33,400 1,000 Climbing Cleveland Center
Fri 10:42:57 AM 42.3325 -84.1308 78° East 460 529 34,400 800 Climbing Cleveland Center
Fri 10:43:57 AM 42.3586 -83.9525 79° East 471 542 35,000 300 Climbing Cleveland Center
Fri 10:44:57 AM 42.3828 -83.7681 80° East 482 555 35,000  Level Cleveland Center
Fri 10:45:57 AM 42.4128 -83.5811 78° East 496 571 35,000  Level Cleveland Center
Fri 10:46:57 AM 42.4589 -83.4061 70° East 496 571 35,000  Level Cleveland Center
Fri 10:47:57 AM 42.5092 -83.2167 70° East 491 565 35,000  Level Cleveland Center
Fri 10:48:57 AM 42.5547 -83.0411 71° East 491 565 35,000  Level Cleveland Center
Fri 10:49:57 AM 42.6000 -82.8681 70° East 491 565 35,000  Level Cleveland Center
Fri 10:50:57 AM 42.6472 -82.6917 70° East 491 565 35,000  Level Cleveland Center
Fri 10:51:57 AM 42.6919 -82.5181 71° East 491 565 35,000  Level Cleveland Center
Fri 10:52:57 AM 42.7364 -82.3414 71° East 481 554 35,000  Level Cleveland Center
Fri 10:53:57 AM 42.7806 -82.1731 70° East 481 554 35,000  Level Cleveland Center
Fri 10:54:57 AM 42.8244 -81.9986 71° East 481 554 35,000  Level Cleveland Center
Fri 10:56:50 AM 42.9000 -81.6667 73° East 490 564 35,000  Level Toronto Center
Fri 10:57:50 AM 42.9333 -81.5000 75° East 490 564 35,000  Level Toronto Center
Fri 10:58:50 AM 42.9833 -81.3167 69° East 480 552 35,000  Level Toronto Center
Fri 10:59:50 AM 43.0167 -81.1333 76° East 480 552 35,000  Level Toronto Center
Fri 11:00:50 AM 43.0833 -80.9833 59° Northeast 470 541 35,000  Level Toronto Center
Fri 11:01:50 AM 43.1500 -80.8167 61° Northeast 470 541 35,000  Level Toronto Center
Fri 11:02:50 AM 43.2333 -80.6667 53° Northeast 470 541 35,000  Level Toronto Center
Fri 11:03:50 AM 43.2833 -80.5333 63° Northeast 470 541 35,000  Level Toronto Center
Fri 11:04:50 AM 43.3500 -80.3667 61° Northeast 470 541 35,000  Level Toronto Center
Fri 11:05:50 AM 43.4167 -80.2000 61° Northeast 470 541 35,000  Level Toronto Center
Fri 11:06:50 AM 43.4667 -80.0500 65° Northeast 460 529 35,000  Level Toronto Center
Fri 11:07:50 AM 43.5333 -79.9167 55° Northeast 450 518 35,000  Level Toronto Center
Fri 11:08:50 AM 43.5833 -79.7500 67° East 450 518 35,000  Level Toronto Center
Fri 11:09:50 AM 43.6500 -79.5833 61° Northeast 460 529 35,000  Level Toronto Center
Fri 11:10:50 AM 43.7000 -79.4333 65° Northeast 460 529 35,000  Level Toronto Center
Fri 11:11:50 AM 43.7500 -79.2667 67° East 460 529 35,000  Level Toronto Center
Fri 11:12:50 AM 43.8000 -79.1000 67° East 460 529 35,000  Level Toronto Center
Fri 11:13:50 AM 43.8500 -78.9333 67° East 460 529 35,000  Level Toronto Center
Fri 11:14:50 AM 43.9000 -78.7833 65° Northeast 460 529 35,000  Level Toronto Center
Fri 11:15:50 AM 43.9500 -78.6167 67° East 450 518 35,000  Level Toronto Center
Fri 11:16:50 AM 43.9667 -78.4500 82° East 460 529 35,000  Level Toronto Center
Fri 11:17:50 AM 44.0333 -78.2833 61° Northeast 460 529 35,000  Level Toronto Center
Fri 11:18:50 AM 44.1000 -78.1500 55° Northeast 460 529 35,000 -50 Level Toronto Center
Fri 11:19:50 AM 44.1667 -77.9833 61° Northeast 450 518 34,900 -1,331 Descending Toronto Center
Fri 11:22:49 AM 44.3667 -77.5833 55° Northeast 450 518 29,700 -1,732 Descending Montreal Center
Fri 11:23:49 AM 44.4333 -77.4500 55° Northeast 440 506 28,000 -1,850 Descending Montreal Center
Fri 11:24:49 AM 44.5000 -77.2833 61° Northeast 450 518 26,000 -1,850 Descending Montreal Center
Fri 11:25:49 AM 44.5667 -77.1167 61° Northeast 460 529 24,300 -1,700 Descending Montreal Center
Fri 11:26:49 AM 44.6167 -76.9833 62° Northeast 440 506 22,600 -1,850 Descending Montreal Center
Fri 11:27:49 AM 44.7000 -76.8333 52° Northeast 440 506 20,600 -1,950 Descending Montreal Center
Fri 11:28:49 AM 44.7667 -76.7167 51° Northeast 420 483 18,700 -1,750 Descending Montreal Center
Fri 11:29:49 AM 44.8333 -76.5833 55° Northeast 400 460 17,100 -1,750 Descending Montreal Center
Fri 11:30:49 AM 44.8833 -76.4667 59° Northeast 390 449 15,200 -2,000 Descending Montreal Center
Fri 11:31:49 AM 44.9500 -76.3500 51° Northeast 380 437 13,100 -1,750 Descending Montreal Center
Fri 11:32:49 AM 45.0000 -76.2333 59° Northeast 340 391 11,700 -1,450 Descending Montreal Center
Fri 11:33:49 AM 45.0167 -76.1167 79° East 300 345 10,200 -1,550 Descending Montreal Center
Fri 11:34:49 AM 45.0333 -76.0167 77° East 270 311 8,600 -1,700 Descending Montreal Center
Fri 11:35:49 AM 45.0500 -75.9167 77° East 260 299 6,800 -1,700 Descending Montreal Center
Fri 11:36:49 AM 45.0667 -75.8000 79° East 260 299 5,200 -1,200 Descending Montreal Center
Fri 11:37:49 AM 45.0833 -75.7000 77° East 250 288 4,400 -1,050 Descending Montreal Center
Fri 11:38:49 AM 45.1000 -75.6167 74° East 240 276 3,100 -700 Descending Montreal Center
Fri 11:39:49 AM 45.1333 -75.5667 47° Northeast 240 276 3,000 -450 Descending Montreal Center
Fri 11:40:49 AM 45.2000 -75.5167 28° Northeast 220 253 2,200 -450 Descending Montreal Center
Fri 11:41:49 AM 45.2333 -75.5333 341° North 190 219 2,100 -350 Descending Montreal Center
Fri 11:42:49 AM 45.2667 -75.5833 313° West 140 161 1,500 -700 Descending Montreal Center
Fri 11:43:49 AM 45.2833 -75.6333 295° West 130 150 700 -550 Descending Montreal Center
Fri 11:44:49 AM 45.3000 -75.6833 295° West 130 150 400 -300 Descending Montreal Center

Login

Don't have an account? Register now (free) for customized features, flight alerts, and more!